Time;durP1;ratioP1;P1;durP2;ratioP2;P2;SDS_P1;SDS_P2;PMS_P1;PMS_P2;Temp;Humidity;BMP_temperature;BMP_pressure;BME280_temperature;BME280_humidity;BME280_pressure;Samples;Min_cycle;Max_cycle;Signal;HPM_P1;HPM_P2
2023/03/18 00:01:03;;;;;;;9.85;5.40;;;11.70;99.90;;;;;;6103248;23;20048;-82
2023/03/18 00:03:32;;;;;;;8.85;5.72;;;11.70;99.90;;;;;;6127498;23;20145;-80
2023/03/18 00:06:19;;;;;;;8.60;5.13;;;11.70;99.90;;;;;;6127064;23;20507;-81
2023/03/18 00:08:46;;;;;;;7.47;4.30;;;11.70;99.90;;;;;;6103226;23;20018;-81
2023/03/18 00:11:14;;;;;;;12.63;5.10;;;11.70;99.90;;;;;;6103008;23;20028;-82
2023/03/18 00:13:41;;;;;;;12.27;5.18;;;11.70;99.90;;;;;;6127185;23;20017;-80
2023/03/18 00:16:09;;;;;;;6.57;5.20;;;11.70;99.90;;;;;;6126415;23;20589;-81
2023/03/18 00:18:36;;;;;;;7.47;5.53;;;11.80;99.90;;;;;;6057754;23;1037784;-80
2023/03/18 00:21:03;;;;;;;9.15;5.35;;;11.80;99.90;;;;;;6127462;23;20126;-81
2023/03/18 00:23:31;;;;;;;8.75;5.38;;;11.80;99.90;;;;;;6102690;23;20100;-81
2023/03/18 00:25:59;;;;;;;8.40;5.22;;;11.80;99.90;;;;;;6101196;23;20025;-82
2023/03/18 00:28:25;;;;;;;7.45;5.55;;;11.80;99.90;;;;;;6127503;23;20017;-81
2023/03/18 00:30:52;;;;;;;9.60;6.43;;;11.80;99.90;;;;;;6127758;23;20021;-81
2023/03/18 00:33:18;;;;;;;6.35;5.65;;;11.80;99.90;;;;;;6103589;23;20064;-82
2023/03/18 00:35:45;;;;;;;10.68;5.65;;;11.80;99.90;;;;;;6102874;23;20017;-80
2023/03/18 00:38:19;;;;;;;11.75;6.53;;;11.80;99.90;;;;;;6101389;23;20014;-81
2023/03/18 00:41:09;;;;;;;12.10;6.85;;;11.80;99.90;;;;;;6102642;23;20198;-81
2023/03/18 00:43:44;;;;;;;11.45;7.78;;;11.70;99.90;;;;;;6129060;23;20014;-81
2023/03/18 00:46:11;;;;;;;12.43;7.75;;;11.70;99.90;;;;;;6104439;23;20385;-80
2023/03/18 00:48:37;;;;;;;10.25;7.07;;;11.60;99.90;;;;;;6104235;23;20055;-81
2023/03/18 00:51:04;;;;;;;13.40;7.15;;;11.60;99.90;;;;;;6126786;23;20017;-81
2023/03/18 00:53:30;;;;;;;15.57;8.13;;;11.50;99.90;;;;;;6103242;23;20060;-82
2023/03/18 00:55:55;;;;;;;11.80;8.27;;;11.50;99.90;;;;;;6102876;23;20355;-81
2023/03/18 00:58:21;;;;;;;11.93;8.48;;;11.40;99.90;;;;;;6104005;23;20021;-81
2023/03/18 01:00:47;;;;;;;11.50;8.00;;;11.40;99.90;;;;;;6103227;23;20010;-81
2023/03/18 01:03:13;;;;;;;10.75;7.68;;;11.30;99.90;;;;;;6104226;23;20494;-81
2023/03/18 01:05:39;;;;;;;11.38;9.05;;;11.20;99.90;;;;;;6127440;23;20073;-82
2023/03/18 01:08:05;;;;;;;12.23;8.98;;;11.20;99.90;;;;;;6102722;23;20017;-81
2023/03/18 01:10:31;;;;;;;13.85;9.57;;;11.10;99.90;;;;;;6128116;23;20020;-81
2023/03/18 01:12:57;;;;;;;15.13;10.48;;;11.10;99.90;;;;;;6103855;23;20453;-81
2023/03/18 01:15:23;;;;;;;14.70;11.57;;;11.10;99.90;;;;;;6127038;23;20049;-81
2023/03/18 01:17:51;;;;;;;15.27;11.05;;;11.00;99.90;;;;;;6104651;23;20009;-81
2023/03/18 01:20:18;;;;;;;13.60;10.98;;;11.00;99.90;;;;;;6104919;23;20025;-81
2023/03/18 01:22:44;;;;;;;16.27;11.23;;;10.90;99.90;;;;;;6103467;23;20041;-80
2023/03/18 01:25:11;;;;;;;16.48;11.98;;;11.10;99.90;;;;;;6102332;23;20029;-80
2023/03/18 01:27:38;;;;;;;14.43;11.95;;;10.90;99.90;;;;;;6127910;23;20021;-81
2023/03/18 01:30:05;;;;;;;15.25;12.55;;;10.80;99.90;;;;;;6104066;23;20045;-81
2023/03/18 01:32:31;;;;;;;13.93;12.45;;;10.80;99.90;;;;;;6105109;23;20021;-81
2023/03/18 01:34:58;;;;;;;13.77;12.27;;;10.80;99.90;;;;;;6105860;23;20024;-81
2023/03/18 01:37:24;;;;;;;18.25;13.27;;;10.80;99.90;;;;;;6106146;23;20100;-81
2023/03/18 01:39:50;;;;;;;14.80;12.85;;;10.80;99.90;;;;;;6105982;23;20572;-80
2023/03/18 01:42:17;;;;;;;15.85;12.70;;;10.80;99.90;;;;;;6130323;23;20013;-81
2023/03/18 01:44:45;;;;;;;14.80;12.15;;;10.80;99.90;;;;;;6130938;23;20014;-81
2023/03/18 01:47:10;;;;;;;18.15;12.55;;;10.70;99.90;;;;;;6129628;23;20017;-81
2023/03/18 01:49:41;;;;;;;15.38;12.95;;;10.70;99.90;;;;;;6106250;23;20024;-81
2023/03/18 01:52:10;;;;;;;23.58;14.18;;;10.70;99.90;;;;;;6130844;23;20087;-81
2023/03/18 01:54:41;;;;;;;17.83;13.95;;;10.70;99.90;;;;;;6130009;23;20026;-80
2023/03/18 01:57:06;;;;;;;20.73;14.02;;;10.70;99.90;;;;;;6130170;23;20028;-81
2023/03/18 01:59:37;;;;;;;15.63;13.95;;;10.60;99.90;;;;;;6131407;23;20009;-81
2023/03/18 02:02:09;;;;;;;16.65;14.85;;;10.60;99.90;;;;;;6107072;23;20014;-82
2023/03/18 02:04:43;;;;;;;20.48;15.80;;;10.50;99.90;;;;;;6106145;23;20029;-81
2023/03/18 02:07:36;;;;;;;20.73;15.70;;;10.50;99.90;;;;;;6105453;23;20017;-81
2023/03/18 02:10:09;;;;;;;17.13;15.32;;;10.40;99.90;;;;;;6126504;23;20017;-81
2023/03/18 02:12:38;;;;;;;19.25;14.88;;;10.30;99.90;;;;;;6130904;23;20036;-81
2023/03/18 02:15:10;;;;;;;20.27;16.25;;;10.40;99.90;;;;;;6106449;23;20014;-80
2023/03/18 02:17:41;;;;;;;17.30;15.27;;;10.40;99.90;;;;;;6107798;23;20013;-81
2023/03/18 02:20:39;;;;;;;18.58;15.18;;;10.30;99.90;;;;;;6106096;23;20028;-81
2023/03/18 02:23:18;;;;;;;19.40;15.27;;;10.30;99.90;;;;;;6099791;23;20299;-81
2023/03/18 02:26:14;;;;;;;18.33;15.63;;;10.20;99.90;;;;;;6105125;23;20350;-80
2023/03/18 02:28:42;;;;;;;19.90;14.80;;;10.10;99.90;;;;;;6130600;23;20079;-80
2023/03/18 02:31:11;;;;;;;16.17;14.45;;;10.00;99.90;;;;;;6105787;23;20018;-81
2023/03/18 02:33:39;;;;;;;14.73;12.52;;;10.00;99.90;;;;;;6106199;23;20017;-81
2023/03/18 02:36:09;;;;;;;19.90;14.68;;;9.90;99.90;;;;;;6105605;23;20028;-81
2023/03/18 02:38:40;;;;;;;19.25;16.00;;;9.80;99.90;;;;;;6131444;23;20025;-81
2023/03/18 02:41:10;;;;;;;21.67;16.02;;;9.80;99.90;;;;;;6129514;23;20040;-81
2023/03/18 02:43:36;;;;;;;21.15;14.85;;;9.80;99.90;;;;;;6130279;23;20048;-81
2023/03/18 02:46:13;;;;;;;21.52;14.95;;;9.70;99.90;;;;;;6132388;23;20017;-81
2023/03/18 02:48:42;;;;;;;20.42;14.88;;;9.80;99.90;;;;;;6131390;23;20017;-80
2023/03/18 02:51:10;;;;;;;17.00;14.52;;;9.70;99.90;;;;;;6130154;23;20018;-81
2023/03/18 02:53:37;;;;;;;17.15;15.45;;;9.70;99.90;;;;;;6106412;23;20335;-81
2023/03/18 02:56:03;;;;;;;20.70;15.55;;;9.70;99.90;;;;;;6130745;23;20013;-81
2023/03/18 02:58:29;;;;;;;19.77;15.07;;;9.60;99.90;;;;;;6107144;23;20010;-81
2023/03/18 03:00:56;;;;;;;17.60;14.38;;;9.60;99.90;;;;;;6106457;23;20014;-82
2023/03/18 03:03:22;;;;;;;22.23;16.77;;;9.60;99.90;;;;;;6105979;23;20013;-81
2023/03/18 03:05:48;;;;;;;20.13;16.33;;;9.60;99.90;;;;;;6106245;23;20065;-81
2023/03/18 03:08:14;;;;;;;21.17;16.25;;;9.70;99.90;;;;;;6106183;23;20060;-81
2023/03/18 03:10:40;;;;;;;26.85;16.77;;;9.70;99.90;;;;;;6129938;23;20017;-81
2023/03/18 03:13:08;;;;;;;21.20;15.50;;;9.70;99.90;;;;;;6130640;23;20021;-81
2023/03/18 03:15:35;;;;;;;21.38;16.52;;;9.70;99.90;;;;;;6106311;23;20009;-82
2023/03/18 03:18:02;;;;;;;19.17;16.45;;;9.70;99.90;;;;;;6131237;23;20014;-81
2023/03/18 03:20:31;;;;;;;20.10;17.25;;;9.60;99.90;;;;;;6104266;23;20025;-81
2023/03/18 03:22:56;;;;;;;21.02;17.00;;;9.60;99.90;;;;;;6131367;23;20024;-79
2023/03/18 03:25:22;;;;;;;23.63;17.98;;;9.60;99.90;;;;;;6132310;23;20378;-81
2023/03/18 03:27:48;;;;;;;21.88;17.23;;;9.50;99.90;;;;;;6107738;23;20013;-81
2023/03/18 03:30:15;;;;;;;19.08;16.67;;;9.50;99.90;;;;;;6107810;23;20020;-81
2023/03/18 03:32:40;;;;;;;20.38;18.23;;;9.50;99.90;;;;;;6132162;23;20025;-80
2023/03/18 03:35:07;;;;;;;22.90;18.35;;;9.40;99.90;;;;;;6108592;23;20013;-81
2023/03/18 03:37:33;;;;;;;23.60;17.63;;;9.40;99.90;;;;;;6132749;23;20049;-81
2023/03/18 03:39:59;;;;;;;22.45;17.75;;;9.40;99.90;;;;;;6131001;23;20021;-80
2023/03/18 03:42:24;;;;;;;26.33;20.17;;;9.40;99.90;;;;;;6105829;23;20021;-81
2023/03/18 03:44:51;;;;;;;25.90;20.05;;;9.40;99.90;;;;;;6105481;23;20017;-80
2023/03/18 03:47:16;;;;;;;24.83;20.20;;;9.40;99.90;;;;;;6130791;23;20085;-81
2023/03/18 03:49:42;;;;;;;27.27;20.08;;;9.40;99.90;;;;;;6131100;23;20017;-81
2023/03/18 03:52:08;;;;;;;28.73;20.77;;;9.40;99.90;;;;;;6129322;23;20018;-81
2023/03/18 03:54:33;;;;;;;29.63;23.50;;;9.40;99.90;;;;;;6106227;23;20028;-80
2023/03/18 03:57:00;;;;;;;26.83;21.27;;;9.40;99.90;;;;;;6107524;23;20117;-81
2023/03/18 03:59:26;;;;;;;30.48;21.75;;;9.40;99.90;;;;;;6131125;23;20021;-81
2023/03/18 04:01:51;;;;;;;26.70;22.05;;;9.40;99.90;;;;;;6129936;23;20022;-81
2023/03/18 04:04:17;;;;;;;24.75;19.40;;;9.40;99.90;;;;;;6106561;23;20438;-81
2023/03/18 04:06:42;;;;;;;25.60;21.38;;;9.50;99.90;;;;;;6106788;23;20416;-81
2023/03/18 04:09:08;;;;;;;27.63;21.02;;;9.40;99.90;;;;;;6129273;23;20045;-81
2023/03/18 04:11:34;;;;;;;27.98;20.73;;;9.50;99.90;;;;;;6105955;23;20120;-81
2023/03/18 04:14:00;;;;;;;28.33;23.27;;;9.50;99.90;;;;;;6105514;23;20014;-81
2023/03/18 04:16:25;;;;;;;30.85;25.80;;;9.50;99.90;;;;;;6130588;23;20543;-81
2023/03/18 04:18:51;;;;;;;26.88;23.95;;;9.50;99.90;;;;;;6130191;23;20017;-82
2023/03/18 04:21:16;;;;;;;27.80;23.60;;;9.50;99.90;;;;;;6130845;23;20013;-81
2023/03/18 04:23:42;;;;;;;25.30;22.60;;;9.50;99.90;;;;;;6129323;23;20013;-80
2023/03/18 04:26:08;;;;;;;24.15;21.60;;;9.50;99.90;;;;;;6106657;23;20457;-81
2023/03/18 04:28:34;;;;;;;24.73;21.50;;;9.50;99.90;;;;;;6107114;23;20024;-81
2023/03/18 04:30:59;;;;;;;24.92;21.23;;;9.50;99.90;;;;;;6106221;23;20017;-81
2023/03/18 04:33:25;;;;;;;24.35;20.95;;;9.40;99.90;;;;;;6131131;23;20339;-80
2023/03/18 04:35:52;;;;;;;24.20;21.23;;;9.40;99.90;;;;;;6132314;23;20045;-81
2023/03/18 04:38:18;;;;;;;25.90;21.60;;;9.40;99.90;;;;;;6105868;23;20013;-80
2023/03/18 04:40:44;;;;;;;24.20;21.60;;;9.40;99.90;;;;;;6105423;23;20097;-80
2023/03/18 04:43:10;;;;;;;31.90;24.23;;;9.40;99.90;;;;;;6106002;23;20056;-79
2023/03/18 04:45:35;;;;;;;29.55;25.15;;;9.40;99.90;;;;;;6106163;23;20021;-80
2023/03/18 04:48:01;;;;;;;29.10;22.92;;;9.60;99.90;;;;;;6106653;23;20013;-81
2023/03/18 04:50:27;;;;;;;28.75;21.92;;;9.40;99.90;;;;;;6106086;23;20021;-81
2023/03/18 04:52:53;;;;;;;26.20;23.02;;;9.40;99.90;;;;;;6132005;23;20017;-80
2023/03/18 04:55:20;;;;;;;24.75;22.08;;;9.40;99.90;;;;;;6133982;23;20013;-80
2023/03/18 04:57:47;;;;;;;27.23;21.58;;;9.40;99.90;;;;;;6132537;23;20033;-81
2023/03/18 05:00:16;;;;;;;32.60;22.70;;;9.40;99.90;;;;;;6132412;23;20045;-80
2023/03/18 05:02:42;;;;;;;28.38;22.35;;;9.40;99.90;;;;;;6134163;23;20063;-81
2023/03/18 05:05:09;;;;;;;25.05;22.33;;;9.40;99.90;;;;;;6109115;23;20033;-81
2023/03/18 05:07:35;;;;;;;31.20;23.08;;;9.40;99.90;;;;;;6108982;23;20100;-81
2023/03/18 05:10:06;;;;;;;26.85;22.70;;;9.40;99.90;;;;;;6132711;23;20017;-81
2023/03/18 05:12:32;;;;;;;26.58;21.67;;;9.40;99.90;;;;;;6132046;23;20013;-80
2023/03/18 05:14:57;;;;;;;25.75;22.60;;;9.40;99.90;;;;;;6108043;23;20018;-80
2023/03/18 05:17:24;;;;;;;25.67;22.02;;;9.40;99.90;;;;;;6132682;23;20036;-81
2023/03/18 05:19:49;;;;;;;28.50;23.67;;;9.50;99.90;;;;;;6132015;23;20025;-81
2023/03/18 05:22:18;;;;;;;27.40;21.88;;;9.50;99.90;;;;;;6107067;23;20484;-80
2023/03/18 05:24:44;;;;;;;25.77;22.58;;;9.50;99.90;;;;;;6106525;23;20006;-81
2023/03/18 05:27:14;;;;;;;27.05;22.33;;;9.50;99.90;;;;;;6107801;23;20024;-81
2023/03/18 05:29:40;;;;;;;25.75;21.58;;;9.50;99.90;;;;;;6107548;23;20048;-81
2023/03/18 05:32:07;;;;;;;27.00;22.88;;;9.50;99.90;;;;;;6106263;23;20039;-81
2023/03/18 05:34:34;;;;;;;26.48;21.40;;;9.50;99.90;;;;;;6108616;23;20013;-81
2023/03/18 05:37:01;;;;;;;34.97;22.30;;;9.40;99.90;;;;;;6107589;23;20021;-80
2023/03/18 05:39:26;;;;;;;26.95;22.30;;;9.50;99.90;;;;;;6133448;23;20037;-81
2023/03/18 05:41:52;;;;;;;27.33;20.95;;;9.40;99.90;;;;;;6132303;23;20014;-79
2023/03/18 05:44:18;;;;;;;23.02;20.63;;;9.50;99.90;;;;;;6106959;23;20345;-81
2023/03/18 05:46:44;;;;;;;23.88;21.50;;;9.50;99.90;;;;;;6107387;23;20017;-81
2023/03/18 05:49:09;;;;;;;29.20;22.42;;;9.40;99.90;;;;;;6105377;23;20024;-81
2023/03/18 05:51:36;;;;;;;26.05;21.95;;;9.50;99.90;;;;;;6108706;23;20021;-80
2023/03/18 05:54:03;;;;;;;26.63;23.83;;;9.40;99.90;;;;;;6131846;23;20021;-79
2023/03/18 05:56:30;;;;;;;27.63;23.13;;;9.40;99.90;;;;;;6109182;23;20158;-80
2023/03/18 05:58:56;;;;;;;24.25;20.58;;;9.40;99.90;;;;;;6106803;23;20036;-79
2023/03/18 06:01:23;;;;;;;27.52;21.92;;;9.50;99.90;;;;;;6109781;23;20144;-81
2023/03/18 06:03:49;;;;;;;24.70;22.10;;;9.50;99.90;;;;;;6108352;23;20014;-80
2023/03/18 06:06:15;;;;;;;26.80;22.77;;;9.40;99.90;;;;;;6108514;23;20028;-80
2023/03/18 06:08:41;;;;;;;30.08;24.50;;;9.40;99.90;;;;;;6106580;23;20017;-80
2023/03/18 06:11:06;;;;;;;28.17;25.13;;;9.50;99.90;;;;;;6108983;23;20025;-81
2023/03/18 06:13:32;;;;;;;27.08;24.08;;;9.40;99.90;;;;;;6108413;23;20067;-81
2023/03/18 06:15:59;;;;;;;24.38;21.80;;;9.50;99.90;;;;;;6129957;23;20065;-81
2023/03/18 06:18:26;;;;;;;25.73;22.10;;;9.60;99.90;;;;;;6132941;23;20025;-81
2023/03/18 06:20:52;;;;;;;24.20;21.75;;;9.50;99.90;;;;;;6133982;23;20038;-81
2023/03/18 06:23:18;;;;;;;24.23;21.52;;;9.60;99.90;;;;;;6107512;23;20021;-83
2023/03/18 06:25:45;;;;;;;25.15;22.55;;;9.60;99.90;;;;;;6106811;23;20048;-81
2023/03/18 06:28:11;;;;;;;24.40;21.80;;;9.60;99.90;;;;;;6108247;23;20013;-81
2023/03/18 06:30:37;;;;;;;23.02;20.60;;;9.70;99.90;;;;;;6108349;23;20476;-81
2023/03/18 06:33:03;;;;;;;22.65;19.95;;;9.60;99.90;;;;;;6110303;23;20009;-81
2023/03/18 06:35:30;;;;;;;23.77;21.15;;;9.70;99.90;;;;;;6108642;23;20100;-79
2023/03/18 06:37:56;;;;;;;23.50;20.85;;;9.70;99.90;;;;;;6133555;23;20022;-79
2023/03/18 06:40:23;;;;;;;25.55;20.48;;;9.70;99.90;;;;;;6107604;23;20033;-81
2023/03/18 06:42:49;;;;;;;22.73;20.25;;;9.80;99.90;;;;;;6135080;23;20016;-80
2023/03/18 06:45:15;;;;;;;28.30;21.35;;;9.90;99.90;;;;;;6132823;23;20014;-80
2023/03/18 06:47:42;;;;;;;22.83;20.35;;;9.90;99.90;;;;;;6104787;23;20053;-81
2023/03/18 06:50:08;;;;;;;24.42;20.85;;;9.90;99.90;;;;;;6126217;23;20025;-80
2023/03/18 06:52:36;;;;;;;24.13;21.30;;;9.90;99.90;;;;;;6124083;23;20048;-85
2023/03/18 06:55:02;;;;;;;23.02;20.00;;;10.00;99.90;;;;;;6123853;23;20065;-84
2023/03/18 06:57:29;;;;;;;21.77;19.48;;;10.00;99.90;;;;;;6100724;23;20350;-84
2023/03/18 06:59:56;;;;;;;25.65;19.73;;;10.10;99.90;;;;;;6124343;23;20494;-82
2023/03/18 07:02:22;;;;;;;20.58;18.40;;;10.20;99.90;;;;;;6101562;23;20010;-85
2023/03/18 07:04:48;;;;;;;20.25;17.95;;;10.40;99.90;;;;;;6101240;23;20096;-84
2023/03/18 07:07:14;;;;;;;18.55;16.65;;;10.50;99.90;;;;;;6101314;23;20076;-84
2023/03/18 07:09:39;;;;;;;22.85;16.83;;;10.60;99.90;;;;;;6100527;23;20409;-84
2023/03/18 07:12:07;;;;;;;19.58;16.55;;;10.70;99.90;;;;;;6100830;23;20049;-85
2023/03/18 07:14:33;;;;;;;19.90;15.50;;;10.80;99.90;;;;;;6126635;23;20020;-85
2023/03/18 07:16:59;;;;;;;19.92;17.00;;;10.80;99.90;;;;;;6101915;23;20108;-85
2023/03/18 07:19:25;;;;;;;21.10;17.50;;;10.70;99.90;;;;;;6100677;23;20780;-84
2023/03/18 07:21:50;;;;;;;22.98;17.30;;;10.70;99.90;;;;;;6101870;23;20088;-84
2023/03/18 07:24:16;;;;;;;22.83;17.25;;;10.70;99.90;;;;;;6134088;23;20013;-80
2023/03/18 07:26:42;;;;;;;19.67;17.25;;;10.70;99.90;;;;;;6135626;23;20386;-80
2023/03/18 07:29:08;;;;;;;27.15;20.15;;;10.70;99.90;;;;;;6126158;23;20014;-81
2023/03/18 07:31:34;;;;;;;21.10;19.02;;;10.60;99.90;;;;;;6104917;23;20450;-83
2023/03/18 07:33:59;;;;;;;20.17;18.02;;;10.60;99.90;;;;;;6126589;23;20021;-84
2023/03/18 07:36:26;;;;;;;19.60;16.17;;;10.60;99.90;;;;;;6100353;23;20032;-85
2023/03/18 07:38:53;;;;;;;19.90;16.83;;;10.60;99.90;;;;;;6124584;23;20414;-85
2023/03/18 07:41:34;;;;;;;18.67;15.75;;;10.60;99.90;;;;;;6102112;23;20113;-83
2023/03/18 07:43:59;;;;;;;21.17;16.08;;;10.60;99.90;;;;;;6123535;23;20025;-85
2023/03/18 07:46:26;;;;;;;20.35;16.33;;;10.50;99.90;;;;;;6100423;23;20021;-84
2023/03/18 07:48:52;;;;;;;21.33;16.17;;;10.60;99.90;;;;;;6101377;23;20473;-84
2023/03/18 07:51:17;;;;;;;21.40;17.15;;;10.50;99.90;;;;;;6098965;23;20018;-85
2023/03/18 07:53:44;;;;;;;20.42;16.95;;;10.50;99.90;;;;;;6124311;23;20013;-85
2023/03/18 07:56:10;;;;;;;22.55;18.13;;;10.50;99.90;;;;;;6125499;23;20348;-85
2023/03/18 07:58:37;;;;;;;20.77;18.58;;;10.60;99.90;;;;;;6100641;23;20010;-85
2023/03/18 08:01:04;;;;;;;24.63;18.17;;;10.60;99.90;;;;;;6150800;23;20021;-85
2023/03/18 08:03:29;;;;;;;21.40;19.05;;;10.40;99.90;;;;;;6151263;23;20009;-86
2023/03/18 08:05:56;;;;;;;23.77;18.50;;;10.50;99.90;;;;;;6124956;23;20497;-81
2023/03/18 08:08:23;;;;;;;23.08;19.58;;;10.40;99.90;;;;;;6126681;23;20785;-80
2023/03/18 08:10:50;;;;;;;20.42;18.17;;;10.40;99.90;;;;;;6100548;23;20068;-81
2023/03/18 08:13:28;;;;;;;23.17;19.50;;;10.40;99.90;;;;;;6105474;23;20120;-85
2023/03/18 08:16:00;;;;;;;24.75;17.73;;;10.40;99.90;;;;;;6135928;23;20018;-85
2023/03/18 08:18:30;;;;;;;23.83;18.73;;;10.50;99.90;;;;;;6100073;23;20076;-84
2023/03/18 08:20:55;;;;;;;25.02;18.63;;;10.50;99.90;;;;;;6098765;23;20028;-82
2023/03/18 08:23:23;;;;;;;22.45;19.45;;;10.50;99.90;;;;;;6100573;23;20017;-86
2023/03/18 08:25:49;;;;;;;24.50;20.48;;;10.60;99.90;;;;;;6099085;23;20098;-84
2023/03/18 08:28:15;;;;;;;22.10;19.27;;;10.60;99.90;;;;;;6100145;23;20462;-82
2023/03/18 08:31:00;;;;;;;26.23;23.55;;;10.70;99.90;;;;;;6099199;23;20121;-85
2023/03/18 08:33:26;;;;;;;25.27;22.30;;;10.70;99.90;;;;;;6099846;23;20107;-86
2023/03/18 08:35:54;;;;;;;25.70;22.48;;;10.70;99.90;;;;;;6098768;23;20024;-86
2023/03/18 08:38:23;;;;;;;25.70;22.92;;;10.90;99.90;;;;;;6124762;23;20014;-83
2023/03/18 08:40:50;;;;;;;30.65;27.48;;;10.80;99.90;;;;;;6120402;23;20017;-82
2023/03/18 08:43:16;;;;;;;27.83;22.35;;;10.90;99.90;;;;;;6098732;23;20085;-82
2023/03/18 08:45:42;;;;;;;34.95;29.60;;;11.00;99.90;;;;;;6101303;23;20017;-83
2023/03/18 08:48:09;;;;;;;31.02;27.75;;;11.00;99.90;;;;;;6100856;23;20010;-84
2023/03/18 08:50:35;;;;;;;27.38;24.30;;;11.40;99.90;;;;;;6098226;23;20165;-82
2023/03/18 08:53:02;;;;;;;24.42;21.92;;;11.20;99.90;;;;;;6123028;23;20092;-85
2023/03/18 08:58:10;;;;;;;27.50;23.75;;;11.60;99.90;;;;;;5136829;27;20425;-87
2023/03/18 09:01:21;;;;;;;24.50;21.40;;;11.50;99.90;;;;;;5080435;28;20046;-89
2023/03/18 09:04:07;;;;;;;24.80;22.25;;;11.60;99.90;;;;;;5116848;28;20047;-87
2023/03/18 09:06:33;;;;;;;24.67;21.20;;;11.70;99.90;;;;;;5098085;28;20046;-87
2023/03/18 09:08:59;;;;;;;23.48;21.17;;;11.90;99.90;;;;;;5085246;28;20505;-86
2023/03/18 09:11:25;;;;;;;22.42;19.52;;;12.20;99.90;;;;;;5100578;28;20039;-86
2023/03/18 09:13:51;;;;;;;21.95;18.80;;;12.50;99.90;;;;;;5086973;28;20058;-87
2023/03/18 09:16:20;;;;;;;20.55;18.08;;;12.90;99.90;;;;;;5100109;28;20040;-85
2023/03/18 09:18:45;;;;;;;20.27;17.50;;;13.30;99.90;;;;;;5091566;28;20043;-86
2023/03/18 09:21:11;;;;;;;19.85;17.75;;;13.30;99.90;;;;;;5095076;28;20095;-87
2023/03/18 09:23:40;;;;;;;21.20;17.95;;;13.50;99.90;;;;;;5087791;28;20082;-87
2023/03/18 09:26:05;;;;;;;20.40;18.15;;;13.70;99.90;;;;;;5081585;28;20071;-87
2023/03/18 09:28:31;;;;;;;23.08;16.42;;;14.00;99.90;;;;;;5086944;28;20484;-87
2023/03/18 09:30:58;;;;;;;18.48;16.58;;;14.20;99.90;;;;;;5102468;27;20043;-88
2023/03/18 09:33:24;;;;;;;19.30;16.80;;;14.30;99.90;;;;;;5117189;28;20621;-87
2023/03/18 09:35:50;;;;;;;22.45;16.77;;;14.60;99.90;;;;;;5089773;28;20056;-87
2023/03/18 09:38:18;;;;;;;21.50;16.73;;;14.80;99.90;;;;;;5085064;28;20560;-87
2023/03/18 09:41:05;;;;;;;19.73;17.17;;;14.70;99.90;;;;;;5079347;28;20066;-87
2023/03/18 09:43:51;;;;;;;22.17;18.35;;;14.30;99.90;;;;;;5089821;28;20069;-87
2023/03/18 09:46:39;;;;;;;19.48;17.60;;;14.10;99.90;;;;;;5103615;28;20055;-87
2023/03/18 09:49:14;;;;;;;21.50;19.15;;;14.00;99.90;;;;;;5075978;28;20036;-88
2023/03/18 09:52:05;;;;;;;21.77;19.15;;;13.90;99.90;;;;;;5096316;28;20673;-87
2023/03/18 09:54:43;;;;;;;20.95;18.75;;;13.80;99.90;;;;;;5082063;28;20176;-88
2023/03/18 09:57:21;;;;;;;21.40;19.20;;;13.70;99.90;;;;;;5076823;28;20063;-87
2023/03/18 09:59:59;;;;;;;20.60;17.55;;;13.60;99.90;;;;;;5082847;28;20031;-86
2023/03/18 10:02:34;;;;;;;20.95;18.63;;;13.60;99.90;;;;;;5080806;28;20470;-87
2023/03/18 10:05:04;;;;;;;20.80;18.17;;;13.60;99.90;;;;;;5090037;28;20035;-87
2023/03/18 10:07:40;;;;;;;22.35;19.13;;;14.00;99.90;;;;;;5070754;28;20126;-87
2023/03/18 10:10:08;;;;;;;;;;;13.50;99.90;;;;;;5070022;28;20092;-86
2023/03/18 10:12:35;;;;;;;28.95;19.60;;;13.30;99.90;;;;;;5085782;28;19927;-85
2023/03/18 10:15:13;;;;;;;23.30;20.88;;;13.30;99.90;;;;;;5066546;28;20051;-86
2023/03/18 10:18:03;;;;;;;24.80;21.52;;;13.30;99.90;;;;;;5067180;28;20054;-88
2023/03/18 10:20:53;;;;;;;25.40;22.75;;;13.40;99.90;;;;;;5070571;27;20100;-88
2023/03/18 10:23:56;;;;;;;25.00;22.35;;;13.40;99.90;;;;;;5066253;28;20044;-88
2023/03/18 10:27:17;;;;;;;24.20;21.75;;;13.50;99.90;;;;;;5080219;28;20036;-88
2023/03/18 10:29:57;;;;;;;26.83;22.15;;;13.60;99.90;;;;;;5074609;28;20489;-87
2023/03/18 10:33:13;;;;;;;24.75;22.25;;;13.70;99.90;;;;;;5069061;28;21339;-88
2023/03/18 10:36:40;;;;;;;;;;;;;;;;;;;;;
2023/03/18 10:39:43;;;;;;;23.15;20.25;;;13.90;99.90;;;;;;5079822;28;20051;-89
2023/03/18 10:42:26;;;;;;;24.33;19.15;;;14.10;99.90;;;;;;5079567;28;20044;-88
2023/03/18 10:45:07;;;;;;;23.17;19.92;;;14.30;99.90;;;;;;5072373;28;20503;-87
2023/03/18 10:47:45;;;;;;;20.73;18.63;;;14.70;99.90;;;;;;5073267;28;20088;-87
2023/03/18 10:50:29;;;;;;;20.98;18.77;;;14.90;99.90;;;;;;5068237;28;20047;-87
2023/03/18 10:53:06;;;;;;;20.05;17.95;;;15.10;99.90;;;;;;5072675;28;20043;-88
2023/03/18 10:55:41;;;;;;;21.17;18.42;;;15.30;99.90;;;;;;5068850;28;20032;-88
2023/03/18 11:03:00;;;;;;;19.25;17.25;;;15.30;99.90;;;;;;5011186;28;20092;-88
2023/03/18 11:05:53;;;;;;;17.33;15.77;;;15.20;99.90;;;;;;5005484;28;20077;-87
2023/03/18 11:08:34;;;;;;;25.27;18.00;;;15.10;99.90;;;;;;4994426;28;20524;-87
2023/03/18 11:11:27;;;;;;;17.98;16.20;;;16.00;99.90;;;;;;4995816;28;20103;-88
2023/03/18 11:14:05;;;;;;;20.55;18.27;;;15.00;99.90;;;;;;5064226;28;20083;-88
2023/03/18 11:16:48;;;;;;;19.23;17.33;;;14.60;99.90;;;;;;5070437;28;20051;-87
2023/03/18 11:19:34;;;;;;;17.98;16.02;;;15.60;99.90;;;;;;5089351;28;20115;-87
2023/03/18 11:22:09;;;;;;;;;;;15.10;99.90;;;;;;5091677;28;20071;-89
2023/03/18 11:24:42;;;;;;;17.75;16.00;;;15.30;99.90;;;;;;5068023;28;20385;-87
2023/03/18 11:27:17;;;;;;;12.18;10.80;;;15.70;99.90;;;;;;5059202;28;20089;-88
2023/03/18 11:29:48;;;;;;;11.18;9.77;;;16.10;99.90;;;;;;5065780;28;20043;-87
2023/03/18 11:32:36;;;;;;;9.32;7.90;;;16.50;99.90;;;;;;5097284;28;20555;-88
2023/03/18 11:35:05;;;;;;;10.18;9.27;;;16.70;99.90;;;;;;5068375;28;20180;-86
2023/03/18 11:38:13;;;;;;;8.85;8.05;;;16.90;99.90;;;;;;5087595;28;20062;-88
2023/03/18 11:40:45;;;;;;;10.60;9.52;;;16.90;99.90;;;;;;5068962;28;20053;-86
2023/03/18 11:43:35;;;;;;;10.38;8.15;;;17.00;99.90;;;;;;5083937;28;20044;-86
2023/03/18 11:46:07;;;;;;;10.57;8.82;;;16.90;99.90;;;;;;5075552;28;20050;-87
2023/03/18 11:48:42;;;;;;;9.55;8.52;;;16.80;99.90;;;;;;5070018;28;20054;-86
2023/03/18 11:51:37;;;;;;;9.55;8.55;;;16.70;99.90;;;;;;5082263;28;20042;-86
2023/03/18 11:54:21;;;;;;;11.63;8.95;;;16.40;99.90;;;;;;5069427;28;20058;-86
2023/03/18 11:57:48;;;;;;;8.45;7.65;;;16.60;99.90;;;;;;5084769;28;20092;-86
2023/03/18 12:00:29;;;;;;;9.00;7.97;;;16.70;99.90;;;;;;5073009;28;20039;-87
2023/03/18 12:07:43;;;;;;;5.28;4.78;;;17.30;99.90;;;;;;5101522;28;20088;-87
2023/03/18 12:10:36;;;;;;;4.93;4.32;;;17.40;99.90;;;;;;5020962;28;20033;-87
2023/03/18 12:13:39;;;;;;;4.18;3.78;;;17.60;99.90;;;;;;4993717;28;20037;-87
2023/03/18 12:16:43;;;;;;;6.72;4.05;;;17.70;99.90;;;;;;4995089;28;20634;-87
2023/03/18 12:20:08;;;;;;;5.60;4.40;;;17.70;99.90;;;;;;4996599;28;20033;-88
2023/03/18 12:23:22;;;;;;;6.13;4.70;;;17.60;99.90;;;;;;5077939;28;20074;-88
2023/03/18 12:26:40;;;;;;;7.75;3.97;;;17.20;99.90;;;;;;5086514;28;20436;-88
2023/03/18 12:30:13;;;;;;;4.22;3.83;;;16.90;99.90;;;;;;5039266;28;20138;-88
2023/03/18 12:37:17;;;;;;;5.70;4.50;;;16.90;99.90;;;;;;5046731;28;20126;-88
2023/03/18 12:40:24;;;;;;;4.75;4.25;;;17.00;99.90;;;;;;4973824;28;20035;-85
2023/03/18 12:43:03;;;;;;;5.68;4.28;;;16.90;99.90;;;;;;4956184;28;20097;-86
2023/03/18 12:45:52;;;;;;;4.35;3.95;;;16.90;99.90;;;;;;5068557;28;20043;-85
2023/03/18 12:48:22;;;;;;;5.10;4.05;;;17.10;99.90;;;;;;5071090;28;20050;-87
2023/03/18 12:50:53;;;;;;;5.60;3.70;;;16.90;99.90;;;;;;5071401;28;20055;-85
2023/03/18 12:53:33;;;;;;;6.63;4.50;;;16.80;99.90;;;;;;5082470;28;20043;-85
2023/03/18 12:56:04;;;;;;;6.00;4.95;;;16.80;99.90;;;;;;5061230;28;20035;-85
2023/03/18 12:58:36;;;;;;;8.15;4.65;;;16.60;99.90;;;;;;5082803;28;20076;-85
2023/03/18 13:01:20;;;;;;;7.13;4.38;;;16.40;99.90;;;;;;5086545;28;20088;-84
2023/03/18 13:04:04;;;;;;;8.57;4.75;;;16.30;99.90;;;;;;5066584;28;20047;-85
2023/03/18 13:06:44;;;;;;;19.52;5.45;;;16.20;99.90;;;;;;5065007;28;20045;-85
2023/03/18 13:09:34;;;;;;;33.45;5.95;;;16.20;99.90;;;;;;5070757;28;20041;-86
2023/03/18 13:12:09;;;;;;;6.60;3.97;;;16.20;99.90;;;;;;5084245;28;20047;-86
2023/03/18 13:14:56;;;;;;;9.73;4.43;;;16.30;99.90;;;;;;5066527;28;20098;-85
2023/03/18 13:17:28;;;;;;;28.38;5.40;;;16.30;99.90;;;;;;5080943;28;20294;-83